sensor_id;sensor_type;location;lat;lon;timestamp;pressure;altitude;pressure_sealevel;temperature;humidity
54465;BME280;40374;49.480;20.016;2023-04-26T00:02:01;94233.84;;;7.76;100.00
54465;BME280;40374;49.480;20.016;2023-04-26T00:04:30;94239.25;;;8.00;100.00
54465;BME280;40374;49.480;20.016;2023-04-26T00:06:58;94240.53;;;8.07;100.00
54465;BME280;40374;49.480;20.016;2023-04-26T00:09:29;94235.94;;;8.13;100.00
54465;BME280;40374;49.480;20.016;2023-04-26T00:11:58;94233.03;;;8.09;100.00
54465;BME280;40374;49.480;20.016;2023-04-26T00:14:25;94232.13;;;8.19;100.00
54465;BME280;40374;49.480;20.016;2023-04-26T00:16:53;94230.88;;;8.11;100.00
54465;BME280;40374;49.480;20.016;2023-04-26T00:19:20;94233.16;;;7.94;100.00
54465;BME280;40374;49.480;20.016;2023-04-26T00:21:47;94251.81;;;8.04;100.00
54465;BME280;40374;49.480;20.016;2023-04-26T00:24:15;94251.81;;;8.04;100.00
54465;BME280;40374;49.480;20.016;2023-04-26T00:26:42;94247.53;;;8.03;100.00
54465;BME280;40374;49.480;20.016;2023-04-26T00:29:10;94241.28;;;7.84;100.00
54465;BME280;40374;49.480;20.016;2023-04-26T00:31:38;94248.78;;;7.82;100.00
54465;BME280;40374;49.480;20.016;2023-04-26T00:34:06;94246.91;;;7.82;100.00
54465;BME280;40374;49.480;20.016;2023-04-26T00:36:33;94254.16;;;7.77;100.00
54465;BME280;40374;49.480;20.016;2023-04-26T00:39:01;94245.22;;;7.91;100.00
54465;BME280;40374;49.480;20.016;2023-04-26T00:41:29;94247.38;;;7.89;100.00
54465;BME280;40374;49.480;20.016;2023-04-26T00:43:56;94253.81;;;7.88;100.00
54465;BME280;40374;49.480;20.016;2023-04-26T00:46:23;94255.44;;;7.84;100.00
54465;BME280;40374;49.480;20.016;2023-04-26T00:48:51;94250.44;;;7.72;100.00
54465;BME280;40374;49.480;20.016;2023-04-26T00:51:19;94266.22;;;7.79;100.00
54465;BME280;40374;49.480;20.016;2023-04-26T00:53:47;94269.63;;;7.85;100.00
54465;BME280;40374;49.480;20.016;2023-04-26T00:56:15;94270.75;;;7.79;100.00
54465;BME280;40374;49.480;20.016;2023-04-26T00:58:44;94265.13;;;7.80;100.00
54465;BME280;40374;49.480;20.016;2023-04-26T01:01:12;94269.38;;;7.86;100.00
54465;BME280;40374;49.480;20.016;2023-04-26T01:03:40;94270.53;;;7.75;100.00
54465;BME280;40374;49.480;20.016;2023-04-26T01:06:10;94259.09;;;7.64;100.00
54465;BME280;40374;49.480;20.016;2023-04-26T01:08:39;94274.91;;;7.56;100.00
54465;BME280;40374;49.480;20.016;2023-04-26T01:11:06;94268.28;;;7.48;100.00
54465;BME280;40374;49.480;20.016;2023-04-26T01:13:34;94279.47;;;7.60;100.00
54465;BME280;40374;49.480;20.016;2023-04-26T01:16:03;94267.63;;;7.66;100.00
54465;BME280;40374;49.480;20.016;2023-04-26T01:18:34;94266.09;;;7.60;100.00
54465;BME280;40374;49.480;20.016;2023-04-26T01:21:02;94273.59;;;7.58;100.00
54465;BME280;40374;49.480;20.016;2023-04-26T01:23:32;94274.16;;;7.50;100.00
54465;BME280;40374;49.480;20.016;2023-04-26T01:25:59;94277.66;;;7.45;100.00
54465;BME280;40374;49.480;20.016;2023-04-26T01:28:27;94281.72;;;7.38;100.00
54465;BME280;40374;49.480;20.016;2023-04-26T01:30:54;94283.31;;;7.44;100.00
54465;BME280;40374;49.480;20.016;2023-04-26T01:33:23;94283.25;;;7.49;100.00
54465;BME280;40374;49.480;20.016;2023-04-26T01:35:51;94289.41;;;7.49;100.00
54465;BME280;40374;49.480;20.016;2023-04-26T01:38:18;94284.63;;;7.46;100.00
54465;BME280;40374;49.480;20.016;2023-04-26T01:40:46;94291.47;;;7.63;100.00
54465;BME280;40374;49.480;20.016;2023-04-26T01:43:13;94293.09;;;7.59;100.00
54465;BME280;40374;49.480;20.016;2023-04-26T01:45:41;94288.88;;;7.52;100.00
54465;BME280;40374;49.480;20.016;2023-04-26T01:48:28;94279.53;;;7.45;100.00
54465;BME280;40374;49.480;20.016;2023-04-26T01:50:56;94293.41;;;7.52;100.00
54465;BME280;40374;49.480;20.016;2023-04-26T01:53:23;94276.72;;;7.21;100.00
54465;BME280;40374;49.480;20.016;2023-04-26T01:55:50;94295.94;;;7.33;100.00
54465;BME280;40374;49.480;20.016;2023-04-26T01:58:18;94293.22;;;7.43;100.00
54465;BME280;40374;49.480;20.016;2023-04-26T02:00:45;94292.44;;;7.38;100.00
54465;BME280;40374;49.480;20.016;2023-04-26T02:03:12;94303.16;;;7.27;100.00
54465;BME280;40374;49.480;20.016;2023-04-26T02:05:42;94290.63;;;7.23;100.00
54465;BME280;40374;49.480;20.016;2023-04-26T02:08:10;94309.09;;;7.19;100.00
54465;BME280;40374;49.480;20.016;2023-04-26T02:10:37;94301.63;;;7.16;100.00
54465;BME280;40374;49.480;20.016;2023-04-26T02:13:07;94301.63;;;7.16;100.00
54465;BME280;40374;49.480;20.016;2023-04-26T02:15:34;94299.19;;;7.20;100.00
54465;BME280;40374;49.480;20.016;2023-04-26T02:18:02;94302.38;;;7.22;100.00
54465;BME280;40374;49.480;20.016;2023-04-26T02:20:29;94297.59;;;7.19;100.00
54465;BME280;40374;49.480;20.016;2023-04-26T02:22:57;94294.66;;;7.15;100.00
54465;BME280;40374;49.480;20.016;2023-04-26T02:25:27;94298.13;;;7.16;100.00
54465;BME280;40374;49.480;20.016;2023-04-26T02:27:54;94290.94;;;7.16;100.00
54465;BME280;40374;49.480;20.016;2023-04-26T02:30:21;94285.84;;;7.09;100.00
54465;BME280;40374;49.480;20.016;2023-04-26T02:32:52;94283.97;;;7.15;100.00
54465;BME280;40374;49.480;20.016;2023-04-26T02:35:20;94292.28;;;7.08;100.00
54465;BME280;40374;49.480;20.016;2023-04-26T02:37:50;94292.38;;;6.93;100.00
54465;BME280;40374;49.480;20.016;2023-04-26T02:40:21;94289.47;;;6.79;100.00
54465;BME280;40374;49.480;20.016;2023-04-26T02:42:48;94292.13;;;6.79;100.00
54465;BME280;40374;49.480;20.016;2023-04-26T02:45:16;94287.34;;;6.76;100.00
54465;BME280;40374;49.480;20.016;2023-04-26T02:47:45;94290.28;;;6.75;100.00
54465;BME280;40374;49.480;20.016;2023-04-26T02:50:12;94285.75;;;6.65;100.00
54465;BME280;40374;49.480;20.016;2023-04-26T02:52:40;94285.50;;;6.61;100.00
54465;BME280;40374;49.480;20.016;2023-04-26T02:55:08;94285.25;;;6.58;100.00
54465;BME280;40374;49.480;20.016;2023-04-26T02:57:36;94296.50;;;6.49;100.00
54465;BME280;40374;49.480;20.016;2023-04-26T03:00:06;94295.66;;;6.54;100.00
54465;BME280;40374;49.480;20.016;2023-04-26T03:02:36;94294.88;;;6.48;100.00
54465;BME280;40374;49.480;20.016;2023-04-26T03:05:04;94300.50;;;6.42;100.00
54465;BME280;40374;49.480;20.016;2023-04-26T03:07:31;94293.31;;;6.37;100.00
54465;BME280;40374;49.480;20.016;2023-04-26T03:10:00;94300.81;;;6.20;100.00
54465;BME280;40374;49.480;20.016;2023-04-26T03:12:28;94305.06;;;5.90;100.00
54465;BME280;40374;49.480;20.016;2023-04-26T03:14:56;94295.69;;;5.87;100.00
54465;BME280;40374;49.480;20.016;2023-04-26T03:17:25;94311.16;;;5.85;100.00
54465;BME280;40374;49.480;20.016;2023-04-26T03:19:52;94310.91;;;5.77;100.00
54465;BME280;40374;49.480;20.016;2023-04-26T03:22:20;94316.75;;;5.63;100.00
54465;BME280;40374;49.480;20.016;2023-04-26T03:24:48;94315.66;;;5.54;100.00
54465;BME280;40374;49.480;20.016;2023-04-26T03:27:16;94314.06;;;5.53;100.00
54465;BME280;40374;49.480;20.016;2023-04-26T03:29:43;94322.59;;;5.60;100.00
54465;BME280;40374;49.480;20.016;2023-04-26T03:32:11;94314.88;;;5.64;100.00
54465;BME280;40374;49.480;20.016;2023-04-26T03:34:38;94329.56;;;5.66;100.00
54465;BME280;40374;49.480;20.016;2023-04-26T03:37:06;94333.28;;;5.55;100.00
54465;BME280;40374;49.480;20.016;2023-04-26T03:39:34;94332.72;;;5.58;100.00
54465;BME280;40374;49.480;20.016;2023-04-26T03:42:02;94331.41;;;5.51;100.00
54465;BME280;40374;49.480;20.016;2023-04-26T03:44:30;94329.25;;;5.47;100.00
54465;BME280;40374;49.480;20.016;2023-04-26T03:46:57;94328.97;;;5.39;100.00
54465;BME280;40374;49.480;20.016;2023-04-26T03:49:25;94333.28;;;5.55;100.00
54465;BME280;40374;49.480;20.016;2023-04-26T03:51:54;94342.34;;;5.64;100.00
54465;BME280;40374;49.480;20.016;2023-04-26T03:54:22;94352.75;;;5.71;100.00
54465;BME280;40374;49.480;20.016;2023-04-26T03:56:49;94357.59;;;5.74;100.00
54465;BME280;40374;49.480;20.016;2023-04-26T03:59:17;94356.28;;;5.82;100.00
54465;BME280;40374;49.480;20.016;2023-04-26T04:01:45;94351.47;;;5.84;100.00
54465;BME280;40374;49.480;20.016;2023-04-26T04:04:13;94346.16;;;5.84;100.00
54465;BME280;40374;49.480;20.016;2023-04-26T04:06:41;94374.47;;;5.95;100.00
54465;BME280;40374;49.480;20.016;2023-04-26T04:09:08;94374.94;;;5.92;100.00
54465;BME280;40374;49.480;20.016;2023-04-26T04:11:38;94382.72;;;5.88;100.00
54465;BME280;40374;49.480;20.016;2023-04-26T04:14:05;94380.28;;;5.82;100.00
54465;BME280;40374;49.480;20.016;2023-04-26T04:16:33;94391.75;;;5.82;100.00
54465;BME280;40374;49.480;20.016;2023-04-26T04:19:00;94382.16;;;5.76;100.00
54465;BME280;40374;49.480;20.016;2023-04-26T04:21:28;94394.16;;;5.79;100.00
54465;BME280;40374;49.480;20.016;2023-04-26T04:23:59;94401.06;;;5.75;100.00
54465;BME280;40374;49.480;20.016;2023-04-26T04:26:27;94401.88;;;5.75;100.00
54465;BME280;40374;49.480;20.016;2023-04-26T04:28:55;94399.50;;;5.74;100.00
54465;BME280;40374;49.480;20.016;2023-04-26T04:31:24;94401.09;;;5.80;100.00
54465;BME280;40374;49.480;20.016;2023-04-26T04:33:52;94403.50;;;5.81;100.00
54465;BME280;40374;49.480;20.016;2023-04-26T04:36:19;94412.31;;;5.82;100.00
54465;BME280;40374;49.480;20.016;2023-04-26T04:38:47;94409.38;;;5.83;100.00
54465;BME280;40374;49.480;20.016;2023-04-26T04:41:16;94414.97;;;5.87;100.00
54465;BME280;40374;49.480;20.016;2023-04-26T04:43:44;94416.84;;;5.92;100.00
54465;BME280;40374;49.480;20.016;2023-04-26T04:46:12;94427.31;;;5.98;100.00
54465;BME280;40374;49.480;20.016;2023-04-26T04:48:40;94422.53;;;6.05;100.00
54465;BME280;40374;49.480;20.016;2023-04-26T04:51:08;94422.50;;;6.00;100.00
54465;BME280;40374;49.480;20.016;2023-04-26T04:53:36;94424.38;;;6.00;100.00
54465;BME280;40374;49.480;20.016;2023-04-26T04:56:04;94429.47;;;6.06;100.00
54465;BME280;40374;49.480;20.016;2023-04-26T04:58:32;94431.63;;;6.09;100.00
54465;BME280;40374;49.480;20.016;2023-04-26T05:01:00;94435.38;;;6.14;100.00
54465;BME280;40374;49.480;20.016;2023-04-26T05:03:36;94436.94;;;6.15;100.00
54465;BME280;40374;49.480;20.016;2023-04-26T05:06:04;94438.59;;;6.26;100.00
54465;BME280;40374;49.480;20.016;2023-04-26T05:08:31;94446.09;;;6.34;100.00
54465;BME280;40374;49.480;20.016;2023-04-26T05:11:02;94451.94;;;6.36;100.00
54465;BME280;40374;49.480;20.016;2023-04-26T05:13:29;94453.03;;;6.56;100.00
54465;BME280;40374;49.480;20.016;2023-04-26T05:15:57;94458.13;;;6.73;100.00
54465;BME280;40374;49.480;20.016;2023-04-26T05:18:24;94453.00;;;6.86;100.00
54465;BME280;40374;49.480;20.016;2023-04-26T05:20:56;94457.28;;;6.93;100.00
54465;BME280;40374;49.480;20.016;2023-04-26T05:23:25;94462.91;;;6.96;100.00
54465;BME280;40374;49.480;20.016;2023-04-26T05:25:52;94457.28;;;7.08;100.00
54465;BME280;40374;49.480;20.016;2023-04-26T05:28:38;94470.06;;;7.42;100.00
54465;BME280;40374;49.480;20.016;2023-04-26T05:31:29;94453.94;;;7.57;100.00
54465;BME280;40374;49.480;20.016;2023-04-26T05:34:19;94452.91;;;7.43;100.00
54465;BME280;40374;49.480;20.016;2023-04-26T05:36:50;94462.84;;;7.32;100.00
54465;BME280;40374;49.480;20.016;2023-04-26T05:39:18;94464.19;;;7.24;100.00
54465;BME280;40374;49.480;20.016;2023-04-26T05:41:47;94452.69;;;7.29;100.00
54465;BME280;40374;49.480;20.016;2023-04-26T05:44:14;94466.84;;;7.40;100.00
54465;BME280;40374;49.480;20.016;2023-04-26T05:46:42;94460.63;;;7.60;100.00
54465;BME280;40374;49.480;20.016;2023-04-26T05:49:10;94456.28;;;7.79;100.00
54465;BME280;40374;49.480;20.016;2023-04-26T05:51:37;94463.97;;;7.96;100.00
54465;BME280;40374;49.480;20.016;2023-04-26T05:54:04;94452.91;;;8.08;100.00
54465;BME280;40374;49.480;20.016;2023-04-26T05:56:35;94454.44;;;8.24;100.00
54465;BME280;40374;49.480;20.016;2023-04-26T05:59:02;94465.09;;;8.34;100.00
54465;BME280;40374;49.480;20.016;2023-04-26T06:01:31;94469.06;;;8.47;100.00
54465;BME280;40374;49.480;20.016;2023-04-26T06:04:00;94467.28;;;8.67;100.00
54465;BME280;40374;49.480;20.016;2023-04-26T06:06:34;94473.63;;;8.81;100.00
54465;BME280;40374;49.480;20.016;2023-04-26T06:09:02;94474.16;;;8.83;94.50
54465;BME280;40374;49.480;20.016;2023-04-26T06:11:29;94475.47;;;8.51;72.10
54465;BME280;40374;49.480;20.016;2023-04-26T06:13:57;94485.88;;;8.03;79.91
54465;BME280;40374;49.480;20.016;2023-04-26T06:16:24;94491.97;;;7.49;82.87
54465;BME280;40374;49.480;20.016;2023-04-26T06:18:52;94488.25;;;7.40;92.05
54465;BME280;40374;49.480;20.016;2023-04-26T06:21:20;94483.97;;;7.34;90.72
54465;BME280;40374;49.480;20.016;2023-04-26T06:23:47;94483.19;;;7.23;91.42
54465;BME280;40374;49.480;20.016;2023-04-26T06:26:17;94494.19;;;7.16;90.49
54465;BME280;40374;49.480;20.016;2023-04-26T06:28:45;94490.69;;;7.16;86.37
54465;BME280;40374;49.480;20.016;2023-04-26T06:31:13;94499.25;;;7.13;93.07
54465;BME280;40374;49.480;20.016;2023-04-26T06:33:43;94494.97;;;7.17;92.29
54465;BME280;40374;49.480;20.016;2023-04-26T06:36:12;94488.53;;;7.23;95.82
54465;BME280;40374;49.480;20.016;2023-04-26T06:38:40;94494.16;;;7.21;97.58
54465;BME280;40374;49.480;20.016;2023-04-26T06:41:08;94482.66;;;7.16;94.61
54465;BME280;40374;49.480;20.016;2023-04-26T06:43:35;94501.63;;;7.29;97.01
54465;BME280;40374;49.480;20.016;2023-04-26T06:46:17;94494.13;;;7.37;99.78
54465;BME280;40374;49.480;20.016;2023-04-26T06:48:54;94504.75;;;7.67;100.00
54465;BME280;40374;49.480;20.016;2023-04-26T06:51:24;94503.66;;;7.68;100.00
54465;BME280;40374;49.480;20.016;2023-04-26T06:53:51;94491.31;;;7.83;99.79
54465;BME280;40374;49.480;20.016;2023-04-26T06:56:19;94502.75;;;8.04;100.00
54465;BME280;40374;49.480;20.016;2023-04-26T06:58:59;94495.19;;;8.16;97.67
54465;BME280;40374;49.480;20.016;2023-04-26T07:01:28;94508.34;;;8.07;83.99
54465;BME280;40374;49.480;20.016;2023-04-26T07:03:55;94505.19;;;7.95;73.03
54465;BME280;40374;49.480;20.016;2023-04-26T07:06:25;94504.16;;;7.81;75.02
54465;BME280;40374;49.480;20.016;2023-04-26T07:08:52;94504.16;;;7.86;85.36
54465;BME280;40374;49.480;20.016;2023-04-26T07:11:20;94495.00;;;8.02;82.20
54465;BME280;40374;49.480;20.016;2023-04-26T07:13:51;94502.22;;;8.02;82.15
54465;BME280;40374;49.480;20.016;2023-04-26T07:16:20;94506.78;;;8.06;88.06
54465;BME280;40374;49.480;20.016;2023-04-26T07:18:47;94503.03;;;7.97;82.85
54465;BME280;40374;49.480;20.016;2023-04-26T07:21:15;94516.47;;;7.92;83.49
54465;BME280;40374;49.480;20.016;2023-04-26T07:23:42;94508.47;;;7.77;78.70
54465;BME280;40374;49.480;20.016;2023-04-26T07:26:10;94519.72;;;7.73;81.52
54465;BME280;40374;49.480;20.016;2023-04-26T07:28:37;94518.41;;;7.66;79.74
54465;BME280;40374;49.480;20.016;2023-04-26T07:31:05;94516.47;;;7.92;85.23
54465;BME280;40374;49.480;20.016;2023-04-26T07:33:35;94503.94;;;8.42;95.67
54465;BME280;40374;49.480;20.016;2023-04-26T07:36:03;94515.41;;;8.87;80.66
54465;BME280;40374;49.480;20.016;2023-04-26T07:38:31;94510.56;;;8.94;68.40
54465;BME280;40374;49.480;20.016;2023-04-26T07:40:58;94518.44;;;8.76;67.10
54465;BME280;40374;49.480;20.016;2023-04-26T07:43:28;94522.50;;;8.18;68.06
54465;BME280;40374;49.480;20.016;2023-04-26T07:46:02;94528.47;;;8.05;73.53
54465;BME280;40374;49.480;20.016;2023-04-26T07:48:29;94540.00;;;8.00;80.26
54465;BME280;40374;49.480;20.016;2023-04-26T07:51:06;94544.56;;;7.95;89.66
54465;BME280;40374;49.480;20.016;2023-04-26T07:53:34;94539.28;;;7.74;93.08
54465;BME280;40374;49.480;20.016;2023-04-26T07:56:05;94542.75;;;7.75;94.27
54465;BME280;40374;49.480;20.016;2023-04-26T07:58:34;94537.69;;;7.68;100.00
54465;BME280;40374;49.480;20.016;2023-04-26T08:01:04;94538.38;;;7.99;100.00
54465;BME280;40374;49.480;20.016;2023-04-26T08:03:32;94543.59;;;8.35;100.00
54465;BME280;40374;49.480;20.016;2023-04-26T08:06:00;94540.66;;;8.86;98.60
54465;BME280;40374;49.480;20.016;2023-04-26T08:08:31;94551.19;;;9.12;85.40
54465;BME280;40374;49.480;20.016;2023-04-26T08:11:06;94552.03;;;9.02;79.07
54465;BME280;40374;49.480;20.016;2023-04-26T08:13:34;94537.44;;;8.84;85.54
54465;BME280;40374;49.480;20.016;2023-04-26T08:16:02;94543.41;;;8.71;84.61
54465;BME280;40374;49.480;20.016;2023-04-26T08:18:29;94538.72;;;8.52;86.14
54465;BME280;40374;49.480;20.016;2023-04-26T08:21:00;94547.75;;;8.62;86.29
54465;BME280;40374;49.480;20.016;2023-04-26T08:23:34;94556.28;;;8.69;82.75
54465;BME280;40374;49.480;20.016;2023-04-26T08:26:05;94556.34;;;8.64;75.85
54465;BME280;40374;49.480;20.016;2023-04-26T08:28:32;94545.66;;;8.53;81.41
54465;BME280;40374;49.480;20.016;2023-04-26T08:31:00;94547.88;;;8.46;77.30
54465;BME280;40374;49.480;20.016;2023-04-26T11:04:19;94571.69;;;5.12;100.00
54465;BME280;40374;49.480;20.016;2023-04-26T11:06:48;94577.59;;;5.51;100.00
54465;BME280;40374;49.480;20.016;2023-04-26T11:09:35;94580.22;;;5.94;100.00
54465;BME280;40374;49.480;20.016;2023-04-26T11:12:12;94581.72;;;6.22;100.00
54465;BME280;40374;49.480;20.016;2023-04-26T11:14:43;94567.91;;;6.50;100.00
54465;BME280;40374;49.480;20.016;2023-04-26T11:17:12;94560.19;;;6.80;100.00
54465;BME280;40374;49.480;20.016;2023-04-26T11:19:45;94568.22;;;7.05;97.63
54465;BME280;40374;49.480;20.016;2023-04-26T11:22:13;94578.13;;;7.05;81.75
54465;BME280;40374;49.480;20.016;2023-04-26T11:24:41;94581.06;;;7.03;89.03
54465;BME280;40374;49.480;20.016;2023-04-26T11:27:12;94591.50;;;7.00;100.00
54465;BME280;40374;49.480;20.016;2023-04-26T11:29:39;94584.56;;;7.09;100.00
54465;BME280;40374;49.480;20.016;2023-04-26T11:32:07;94590.44;;;7.06;100.00
54465;BME280;40374;49.480;20.016;2023-04-26T11:34:36;94591.53;;;7.20;100.00
54465;BME280;40374;49.480;20.016;2023-04-26T11:37:05;94593.91;;;7.22;100.00
54465;BME280;40374;49.480;20.016;2023-04-26T11:39:34;94591.78;;;7.14;100.00
54465;BME280;40374;49.480;20.016;2023-04-26T11:42:06;94596.59;;;6.91;100.00
54465;BME280;40374;49.480;20.016;2023-04-26T11:44:34;94592.78;;;6.66;100.00
54465;BME280;40374;49.480;20.016;2023-04-26T11:47:02;94597.84;;;6.63;100.00
54465;BME280;40374;49.480;20.016;2023-04-26T11:49:32;94600.56;;;6.68;100.00
54465;BME280;40374;49.480;20.016;2023-04-26T11:51:59;94598.94;;;6.67;100.00
54465;BME280;40374;49.480;20.016;2023-04-26T11:54:32;94579.19;;;6.68;100.00
54465;BME280;40374;49.480;20.016;2023-04-26T11:57:00;94593.09;;;6.90;100.00
54465;BME280;40374;49.480;20.016;2023-04-26T11:59:42;94593.13;;;7.11;100.00
54465;BME280;40374;49.480;20.016;2023-04-26T12:02:10;94593.09;;;7.26;100.00
54465;BME280;40374;49.480;20.016;2023-04-26T12:04:39;94604.59;;;7.47;100.00
54465;BME280;40374;49.480;20.016;2023-04-26T12:07:08;94583.47;;;7.51;100.00
54465;BME280;40374;49.480;20.016;2023-04-26T12:09:39;94603.22;;;7.81;100.00
54465;BME280;40374;49.480;20.016;2023-04-26T12:12:08;94601.63;;;7.90;100.00
54465;BME280;40374;49.480;20.016;2023-04-26T12:14:39;94595.38;;;8.15;100.00
54465;BME280;40374;49.480;20.016;2023-04-26T12:17:07;94600.94;;;8.29;100.00
54465;BME280;40374;49.480;20.016;2023-04-26T12:19:37;94600.94;;;8.44;89.25
54465;BME280;40374;49.480;20.016;2023-04-26T12:22:06;94607.53;;;8.67;79.67
54465;BME280;40374;49.480;20.016;2023-04-26T12:24:36;94602.81;;;8.93;82.22
54465;BME280;40374;49.480;20.016;2023-04-26T12:27:05;94614.13;;;9.25;74.17
54465;BME280;40374;49.480;20.016;2023-04-26T12:29:33;94619.28;;;9.16;73.76
54465;BME280;40374;49.480;20.016;2023-04-26T12:32:01;94620.38;;;8.70;73.23
54465;BME280;40374;49.480;20.016;2023-04-26T12:34:30;94628.81;;;8.33;74.45
54465;BME280;40374;49.480;20.016;2023-04-26T12:36:58;94628.09;;;8.02;76.29
54465;BME280;40374;49.480;20.016;2023-04-26T12:39:25;94636.72;;;7.68;81.46
54465;BME280;40374;49.480;20.016;2023-04-26T12:41:53;94636.19;;;7.50;82.37
54465;BME280;40374;49.480;20.016;2023-04-26T12:44:21;94624.94;;;7.38;80.63
54465;BME280;40374;49.480;20.016;2023-04-26T12:46:50;94609.72;;;7.18;75.98
54465;BME280;40374;49.480;20.016;2023-04-26T12:49:18;94614.25;;;7.23;77.05
54465;BME280;40374;49.480;20.016;2023-04-26T12:51:45;94619.34;;;7.29;71.27
54465;BME280;40374;49.480;20.016;2023-04-26T12:54:13;94624.13;;;7.32;75.26
54465;BME280;40374;49.480;20.016;2023-04-26T12:56:40;94622.03;;;7.50;75.87
54465;BME280;40374;49.480;20.016;2023-04-26T12:59:10;94618.75;;;7.79;72.12
54465;BME280;40374;49.480;20.016;2023-04-26T13:01:38;94614.47;;;7.88;67.59
54465;BME280;40374;49.480;20.016;2023-04-26T13:04:05;94619.66;;;8.39;71.35
54465;BME280;40374;49.480;20.016;2023-04-26T13:06:33;94611.19;;;9.26;64.51
54465;BME280;40374;49.480;20.016;2023-04-26T13:11:41;94599.63;;;12.86;56.67
54465;BME280;40374;49.480;20.016;2023-04-26T13:14:09;94592.69;;;14.69;54.86
54465;BME280;40374;49.480;20.016;2023-04-26T13:16:36;94579.69;;;16.40;47.61
54465;BME280;40374;49.480;20.016;2023-04-26T13:19:09;94582.59;;;18.00;45.44
54465;BME280;40374;49.480;20.016;2023-04-26T13:21:37;94575.34;;;18.04;42.07
54465;BME280;40374;49.480;20.016;2023-04-26T13:24:04;94571.09;;;16.68;40.33
54465;BME280;40374;49.480;20.016;2023-04-26T13:26:32;94579.09;;;15.44;41.32
54465;BME280;40374;49.480;20.016;2023-04-26T13:28:59;94580.78;;;14.30;43.48
54465;BME280;40374;49.480;20.016;2023-04-26T13:31:27;94595.72;;;13.29;45.10
54465;BME280;40374;49.480;20.016;2023-04-26T13:33:55;94589.69;;;12.45;47.09
54465;BME280;40374;49.480;20.016;2023-04-26T13:36:22;94600.44;;;11.71;48.52
54465;BME280;40374;49.480;20.016;2023-04-26T13:38:50;94596.09;;;11.04;49.89
54465;BME280;40374;49.480;20.016;2023-04-26T13:41:17;94603.91;;;10.44;50.37
54465;BME280;40374;49.480;20.016;2023-04-26T13:43:45;94601.38;;;9.99;51.14
54465;BME280;40374;49.480;20.016;2023-04-26T13:46:12;94597.03;;;9.50;51.72
54465;BME280;40374;49.480;20.016;2023-04-26T13:48:40;94611.91;;;9.32;53.14
54465;BME280;40374;49.480;20.016;2023-04-26T13:51:07;94601.94;;;9.03;54.77
54465;BME280;40374;49.480;20.016;2023-04-26T13:53:35;94616.16;;;9.04;54.98
54465;BME280;40374;49.480;20.016;2023-04-26T13:56:05;94601.69;;;9.00;56.31
54465;BME280;40374;49.480;20.016;2023-04-26T13:58:33;94614.31;;;9.39;55.84
54465;BME280;40374;49.480;20.016;2023-04-26T14:01:01;94592.53;;;9.40;53.88
54465;BME280;40374;49.480;20.016;2023-04-26T14:03:29;94601.34;;;9.11;53.20
54465;BME280;40374;49.480;20.016;2023-04-26T14:05:59;94618.06;;;8.98;53.92
54465;BME280;40374;49.480;20.016;2023-04-26T14:08:29;94609.13;;;8.68;53.13
54465;BME280;40374;49.480;20.016;2023-04-26T14:10:56;94613.19;;;8.56;53.22
54465;BME280;40374;49.480;20.016;2023-04-26T14:13:27;94630.16;;;8.41;52.63
54465;BME280;40374;49.480;20.016;2023-04-26T14:15:54;94625.06;;;8.29;52.83
54465;BME280;40374;49.480;20.016;2023-04-26T14:18:22;94617.09;;;8.13;52.81
54465;BME280;40374;49.480;20.016;2023-04-26T14:20:52;94615.53;;;7.92;52.61
54465;BME280;40374;49.480;20.016;2023-04-26T14:25:34;94623.75;;;8.16;53.85
54465;BME280;40374;49.480;20.016;2023-04-26T14:28:02;94621.28;;;8.35;51.98
54465;BME280;40374;49.480;20.016;2023-04-26T14:30:30;94625.81;;;8.50;48.49
54465;BME280;40374;49.480;20.016;2023-04-26T14:32:57;94625.28;;;8.53;49.52
54465;BME280;40374;49.480;20.016;2023-04-26T14:35:25;94623.38;;;9.43;48.88
54465;BME280;40374;49.480;20.016;2023-04-26T14:37:53;94603.84;;;11.44;48.93
54465;BME280;40374;49.480;20.016;2023-04-26T14:40:20;94609.34;;;12.59;43.38
54465;BME280;40374;49.480;20.016;2023-04-26T14:42:48;94618.47;;;12.50;43.55
54465;BME280;40374;49.480;20.016;2023-04-26T14:45:15;94623.59;;;12.05;43.98
54465;BME280;40374;49.480;20.016;2023-04-26T14:47:45;94637.69;;;11.50;45.04
54465;BME280;40374;49.480;20.016;2023-04-26T14:50:13;94633.09;;;10.93;45.76
54465;BME280;40374;49.480;20.016;2023-04-26T14:52:40;94634.31;;;10.39;46.88
54465;BME280;40374;49.480;20.016;2023-04-26T14:55:08;94638.03;;;10.14;48.51
54465;BME280;40374;49.480;20.016;2023-04-26T14:57:39;94629.16;;;9.60;48.39
54465;BME280;40374;49.480;20.016;2023-04-26T15:00:07;94644.44;;;9.30;49.52
54465;BME280;40374;49.480;20.016;2023-04-26T15:02:37;94647.50;;;9.13;49.72
54465;BME280;40374;49.480;20.016;2023-04-26T15:05:05;94648.03;;;9.16;49.76
54465;BME280;40374;49.480;20.016;2023-04-26T15:07:34;94639.03;;;8.91;50.12
54465;BME280;40374;49.480;20.016;2023-04-26T15:10:02;94658.84;;;8.95;50.50
54465;BME280;40374;49.480;20.016;2023-04-26T15:12:32;94649.50;;;8.87;51.98
54465;BME280;40374;49.480;20.016;2023-04-26T15:15:00;94656.81;;;8.77;51.10
54465;BME280;40374;49.480;20.016;2023-04-26T15:17:32;94653.59;;;8.74;51.05
54465;BME280;40374;49.480;20.016;2023-04-26T15:20:00;94648.41;;;8.93;51.33
54465;BME280;40374;49.480;20.016;2023-04-26T15:22:28;94660.41;;;9.46;50.16
54465;BME280;40374;49.480;20.016;2023-04-26T15:24:57;94654.09;;;9.95;48.27
54465;BME280;40374;49.480;20.016;2023-04-26T15:27:25;94646.88;;;10.92;47.91
54465;BME280;40374;49.480;20.016;2023-04-26T15:29:52;94648.97;;;11.33;46.74
54465;BME280;40374;49.480;20.016;2023-04-26T15:32:20;94645.41;;;11.00;46.18
54465;BME280;40374;49.480;20.016;2023-04-26T15:34:50;94655.31;;;10.61;47.57
54465;BME280;40374;49.480;20.016;2023-04-26T15:37:17;94653.97;;;10.10;48.60